SBEK

Details ICAO SBEK
Name JACAREACANGA
Region Brazil
Timezone America/Santarem (UTC-3.0)
Plans Departing 3
Arriving 2
Stats Elevation 324 ft / 99 m (AMSL)
Location -6.233155° -57.776869°
Runways 1
Magnetic Variation 16.996° W
Sunrise 2017-12-12 09:32:01 UTC / 2017-12-12 06:32:01 Local
Sunset 2017-12-12 22:00:40 UTC / 2017-12-12 19:00:40 Local
Advertisement - Login to hide

Runways

ID Width Length Bearing (true) Bearing (mag) Surface Threshold Offset Overrun Length
08 98 ft / 30 m 5,259 ft / 1,603 m 62.95° 79.95° Asphalt 0 ft / 0 m 205 ft / 62 m
26 98 ft / 30 m 5,259 ft / 1,603 m 242.95° 259.95° Asphalt 0 ft / 0 m 205 ft / 62 m

Map

Weather


0- 5 10 15 20 25 30 35+ Temperature / ° C

Clouds and Precipitation
Forecast for 2017-12-13 00:00 UTC. Updated an hour ago

Ground ~20,000 ft ~40,000 ft Winds

METAR

SBEK 122100Z 09005KT 5000 -TSRA SCT010 FEW025CB OVC070 24/24 Q1009

TAF

Not found
Warning: Do not use this data for real-world aviation or navigation. No guarantee of current accuracy is given.